Time;durP1;ratioP1;P1;durP2;ratioP2;P2;SDS_P1;SDS_P2;PMS_P1;PMS_P2;Temp;Humidity;BMP_temperature;BMP_pressure;BME280_temperature;BME280_humidity;BME280_pressure;Samples;Min_cycle;Max_cycle;Signal;HPM_P1;HPM_P2
2021/12/11 00:00:58;;;;;;;;;51.25;44.25;;;;;6.03;76.21;98251.03;5087068;28;8871;-69
2021/12/11 00:03:29;;;;;;;;;51.50;44.25;;;;;6.13;76.02;98250.16;5050088;28;8914;-70
2021/12/11 00:06:09;;;;;;;;;44.00;37.75;;;;;6.18;75.79;98250.13;5069168;28;9628;-69
2021/12/11 00:08:39;;;;;;;;;46.00;42.25;;;;;6.19;75.24;98250.13;5086766;28;8847;-70
2021/12/11 00:11:12;;;;;;;;;23.25;16.25;;;;;6.24;75.41;98256.16;5086187;28;8871;-70
2021/12/11 00:13:43;;;;;;;;;46.50;42.50;;;;;6.21;75.49;98252.72;5068690;28;8846;-70
2021/12/11 00:16:15;;;;;;;;;37.25;32.00;;;;;6.29;74.90;98255.25;5086673;28;9644;-70
2021/12/11 00:18:49;;;;;;;;;47.00;42.75;;;;;6.15;75.22;98245.84;5086048;28;9577;-70
2021/12/11 00:21:19;;;;;;;;;46.75;39.25;;;;;6.20;75.27;98251.84;5086804;28;8867;-70
2021/12/11 00:23:52;;;;;;;;;37.00;36.00;;;;;6.22;75.22;98250.13;5051514;28;8851;-70
2021/12/11 00:26:28;;;;;;;;;56.25;46.25;;;;;6.24;74.83;98250.97;5086941;28;8962;-70
2021/12/11 00:28:59;;;;;;;;;51.00;37.75;;;;;6.24;74.87;98256.16;5086179;28;8880;-69
2021/12/11 00:31:28;;;;;;;;;46.75;39.75;;;;;6.29;74.75;98261.28;5087830;28;8883;-69
2021/12/11 00:33:57;;;;;;;;;50.75;43.25;;;;;6.37;74.58;98261.25;5107215;28;9022;-69
2021/12/11 00:36:32;;;;;;;;;48.25;41.75;;;;;6.37;74.51;98251.78;5072351;28;8964;-70
2021/12/11 00:39:07;;;;;;;;;49.00;43.00;;;;;6.43;74.50;98241.38;5055813;28;8860;-71
2021/12/11 00:41:39;;;;;;;;;50.00;43.75;;;;;6.40;74.33;98241.41;5104784;28;8931;-69
2021/12/11 00:44:08;;;;;;;;;47.25;41.50;;;;;6.44;74.38;98255.19;5054262;28;8863;-70
2021/12/11 00:46:37;;;;;;;;;53.75;43.50;;;;;6.49;74.19;98250.84;5063441;28;8874;-68
2021/12/11 00:49:12;;;;;;;;;47.00;41.00;;;;;6.56;74.14;98252.56;5046979;28;8921;-69
2021/12/11 00:51:42;;;;;;;;;38.00;37.75;;;;;6.58;73.87;98249.97;5065958;28;8984;-70
2021/12/11 00:54:11;;;;;;;;;53.75;45.75;;;;;6.58;73.90;98261.19;5063654;28;8868;-69
2021/12/11 00:56:41;;;;;;;;;49.75;43.00;;;;;6.61;74.01;98268.06;5013432;28;8873;-70
2021/12/11 00:59:15;;;;;;;;;43.25;39.25;;;;;6.46;74.18;98271.56;5046351;28;9605;-70
2021/12/11 01:01:49;;;;;;;;;37.00;33.50;;;;;6.10;75.36;98278.63;5063568;28;8875;-70
2021/12/11 01:04:21;;;;;;;;;49.50;39.75;;;;;5.91;76.38;98279.50;5063648;28;8936;-69
2021/12/11 01:06:53;;;;;;;;;43.00;39.00;;;;;5.81;76.63;98270.91;5063502;28;8869;-70
2021/12/11 01:09:25;;;;;;;;;43.00;37.75;;;;;5.89;76.43;98276.94;5046861;28;8898;-70
2021/12/11 01:12:03;;;;;;;;;43.75;39.75;;;;;5.84;76.15;98276.06;5046261;28;8883;-69
2021/12/11 01:14:41;;;;;;;;;48.00;40.25;;;;;5.70;77.03;98280.41;5063163;28;8827;-69
2021/12/11 01:17:18;;;;;;;;;38.25;34.25;;;;;5.73;76.98;98259.72;5070981;28;8856;-69
2021/12/11 01:19:51;;;;;;;;;47.75;38.25;;;;;5.71;76.98;98266.59;5106396;28;8843;-68
2021/12/11 01:22:33;;;;;;;;;37.50;29.00;;;;;5.68;77.19;98264.06;5104584;28;8859;-68
2021/12/11 01:25:08;;;;;;;;;35.50;33.75;;;;;5.67;76.76;98255.41;5106231;28;8863;-68
2021/12/11 01:27:40;;;;;;;;;36.50;35.00;;;;;5.71;76.35;98264.03;5106616;28;8860;-68
2021/12/11 01:30:13;;;;;;;;;38.75;33.75;;;;;5.66;76.49;98267.47;5106411;28;8836;-69
2021/12/11 01:32:42;;;;;;;;;36.50;32.00;;;;;5.65;76.50;98265.78;5073127;28;8856;-69
2021/12/11 01:35:16;;;;;;;;;42.00;36.00;;;;;5.64;76.05;98260.59;5077178;28;8835;-69
2021/12/11 01:37:46;;;;;;;;;35.00;33.25;;;;;5.64;76.00;98253.69;5110513;28;8864;-69
2021/12/11 01:40:21;;;;;;;;;43.25;35.50;;;;;5.60;76.73;98261.47;5110128;28;8863;-70
2021/12/11 01:42:51;;;;;;;;;38.75;30.75;;;;;5.64;76.41;98245.09;5110177;28;8878;-70
2021/12/11 01:45:20;;;;;;;;;35.75;34.75;;;;;5.63;76.02;98248.53;5110187;28;9639;-70
2021/12/11 01:47:49;;;;;;;;;42.50;37.00;;;;;5.70;75.69;98233.88;5057670;28;8867;-70
2021/12/11 01:50:26;;;;;;;;;36.50;31.00;;;;;5.62;76.47;98242.50;5109832;28;8823;-69
2021/12/11 01:53:00;;;;;;;;;38.00;32.75;;;;;5.56;75.90;98236.50;5110216;28;8859;-70
2021/12/11 01:55:35;;;;;;;;;34.50;30.75;;;;;5.49;76.25;98237.34;5111586;28;8875;-69
2021/12/11 01:58:10;;;;;;;;;34.50;31.25;;;;;5.44;76.64;98222.72;5093293;28;8835;-70
2021/12/11 02:00:42;;;;;;;;;35.00;30.75;;;;;5.44;76.52;98217.56;5110033;28;8868;-70
2021/12/11 02:03:17;;;;;;;;;26.25;20.50;;;;;5.40;76.49;98210.63;5097559;28;9620;-70
2021/12/11 02:05:46;;;;;;;;;33.60;30.00;;;;;5.42;76.52;98205.47;5111206;28;8843;-70
2021/12/11 02:08:20;;;;;;;;;38.50;34.50;;;;;5.46;76.04;98195.13;5097172;28;8932;-68
2021/12/11 02:10:55;;;;;;;;;41.75;36.50;;;;;5.32;76.50;98191.72;5110257;28;8982;-68
2021/12/11 02:13:38;;;;;;;;;31.00;26.80;;;;;5.25;76.96;98193.44;5074874;28;8914;-69
2021/12/11 02:16:13;;;;;;;;;37.25;29.00;;;;;5.20;76.95;98184.84;5110997;28;8843;-69
2021/12/11 02:18:46;;;;;;;;;33.75;31.00;;;;;5.27;77.31;98180.50;5087445;28;8892;-70
2021/12/11 02:21:18;;;;;;;;;30.40;27.60;;;;;5.01;78.33;98181.41;5110758;28;8897;-68
2021/12/11 02:23:57;;;;;;;;;30.00;28.20;;;;;4.95;78.69;98181.38;5092581;28;8839;-69
2021/12/11 02:26:27;;;;;;;;;5.50;3.75;;;;;5.03;78.79;98178.81;5110243;28;8839;-70
2021/12/11 02:29:01;;;;;;;;;40.00;30.75;;;;;5.14;78.28;98171.94;5110715;28;8889;-69
2021/12/11 02:31:35;;;;;;;;;38.60;30.40;;;;;5.22;78.24;98172.78;5073287;28;8859;-69
2021/12/11 02:34:09;;;;;;;;;26.00;21.80;;;;;5.36;77.49;98164.97;5092444;28;8863;-69
2021/12/11 02:36:42;;;;;;;;;38.40;33.40;;;;;5.44;76.90;98162.38;5109651;28;8856;-69
2021/12/11 02:39:22;;;;;;;;;37.80;31.00;;;;;5.40;76.93;98158.94;5110616;28;8852;-69
2021/12/11 02:41:57;;;;;;;;;33.50;30.00;;;;;5.33;77.33;98162.44;5074153;28;9048;-69
2021/12/11 02:44:32;;;;;;;;;40.50;35.25;;;;;5.24;77.89;98167.59;5110163;28;8885;-70
2021/12/11 02:47:07;;;;;;;;;42.50;32.50;;;;;5.31;77.46;98164.13;5110186;28;8921;-69
2021/12/11 02:49:42;;;;;;;;;45.50;39.50;;;;;5.13;78.27;98169.34;5110281;28;8855;-69
2021/12/11 02:52:15;;;;;;;;;38.75;35.75;;;;;5.32;77.49;98165.84;5110109;28;8851;-69
2021/12/11 02:54:49;;;;;;;;;31.50;28.75;;;;;5.43;77.54;98160.69;5096927;28;8860;-69
2021/12/11 02:57:23;;;;;;;;;38.75;33.00;;;;;5.31;77.14;98165.84;5109347;28;9707;-69
2021/12/11 02:59:53;;;;;;;;;37.25;31.75;;;;;5.08;78.66;98170.22;5091930;28;9052;-69
2021/12/11 03:02:25;;;;;;;;;39.00;34.75;;;;;5.08;78.56;98159.88;5091787;28;8884;-69
2021/12/11 03:05:05;;;;;;;;;42.25;34.75;;;;;5.08;78.51;98165.03;5109877;28;8944;-67
2021/12/11 03:07:37;;;;;;;;;34.50;30.00;;;;;5.11;78.05;98165.91;5091730;28;8909;-69
2021/12/11 03:10:12;;;;;;;;;33.25;31.25;;;;;5.09;78.37;98163.31;5109857;28;8869;-70
2021/12/11 03:12:43;;;;;;;;;33.50;32.25;;;;;5.07;78.63;98170.22;5109666;28;8875;-70
2021/12/11 03:15:14;;;;;;;;;21.25;18.75;;;;;5.02;78.53;98165.03;5109329;28;8859;-69
2021/12/11 03:17:43;;;;;;;;;33.00;31.00;;;;;5.08;77.96;98165.03;5074746;28;8867;-70
2021/12/11 03:20:15;;;;;;;;;39.25;33.75;;;;;4.98;78.13;98150.41;5072889;28;8856;-69
2021/12/11 03:22:46;;;;;;;;;37.00;35.75;;;;;4.83;79.32;98155.56;5109332;28;8863;-69
2021/12/11 03:25:25;;;;;;;;;35.50;31.00;;;;;4.82;78.81;98154.72;5109476;28;8958;-69
2021/12/11 03:27:56;;;;;;;;;39.75;35.75;;;;;4.87;79.15;98149.53;5091565;28;8870;-69
2021/12/11 03:30:27;;;;;;;;;30.25;28.00;;;;;4.85;78.62;98148.69;5109038;28;8847;-68
2021/12/11 03:33:02;;;;;;;;;29.50;29.25;;;;;4.75;78.54;98152.16;5056552;28;8859;-69
2021/12/11 03:35:31;;;;;;;;;37.25;32.50;;;;;4.58;79.11;98154.72;5091366;28;9581;-69
2021/12/11 03:38:00;;;;;;;;;32.00;30.25;;;;;4.66;79.27;98155.56;5109158;28;8851;-69
2021/12/11 03:40:31;;;;;;;;;36.50;32.00;;;;;4.67;78.98;98159.88;5108958;28;8981;-70
2021/12/11 03:43:02;;;;;;;;;34.75;33.75;;;;;4.62;79.09;98159.88;5106857;28;8894;-70
2021/12/11 03:45:36;;;;;;;;;29.75;27.25;;;;;4.54;79.37;98164.19;5109070;28;8868;-70
2021/12/11 03:48:09;;;;;;;;;32.00;28.50;;;;;4.52;79.37;98165.00;5109140;28;8836;-69
2021/12/11 03:50:39;;;;;;;;;37.00;31.00;;;;;4.44;79.67;98160.72;5090601;28;8878;-69
2021/12/11 03:53:09;;;;;;;;;38.25;35.50;;;;;4.36;80.02;98158.97;5072198;28;8859;-69
2021/12/11 03:55:43;;;;;;;;;40.00;35.00;;;;;4.38;79.73;98159.84;5090370;28;8851;-69
2021/12/11 03:58:13;;;;;;;;;42.50;39.25;;;;;4.30;79.94;98155.50;5073337;28;8860;-69
2021/12/11 04:00:45;;;;;;;;;37.75;32.50;;;;;4.38;79.80;98162.41;5108389;28;8855;-70
2021/12/11 04:03:16;;;;;;;;;41.50;36.00;;;;;4.33;79.68;98158.97;5108536;28;8856;-69
2021/12/11 04:05:46;;;;;;;;;42.50;37.50;;;;;4.35;79.59;98158.13;5108958;28;8840;-69
2021/12/11 04:08:20;;;;;;;;;36.25;35.00;;;;;4.28;79.94;98157.22;5108671;28;9006;-68
2021/12/11 04:10:51;;;;;;;;;32.50;32.50;;;;;4.33;80.20;98165.00;5108325;28;8847;-69
2021/12/11 04:13:20;;;;;;;;;43.00;34.25;;;;;4.23;80.41;98153.78;5090483;28;9985;-68
2021/12/11 04:15:51;;;;;;;;;42.75;39.25;;;;;4.28;80.10;98167.56;5108528;28;8873;-69
2021/12/11 04:18:20;;;;;;;;;46.75;38.50;;;;;4.25;80.62;98161.53;5113276;27;8840;-69
2021/12/11 04:20:51;;;;;;;;;41.00;40.00;;;;;4.27;80.61;98157.22;5107881;28;8944;-69
2021/12/11 04:23:22;;;;;;;;;42.25;38.00;;;;;4.32;80.90;98163.25;5108452;28;8886;-68
2021/12/11 04:25:56;;;;;;;;;25.25;22.50;;;;;4.38;80.12;98159.84;5044934;28;8862;-70
2021/12/11 04:28:26;;;;;;;;;38.25;33.25;;;;;4.40;80.31;98158.97;5044944;28;9623;-69
2021/12/11 04:31:03;;;;;;;;;44.25;37.50;;;;;4.39;79.98;98154.69;5044915;28;8945;-70
2021/12/11 04:33:34;;;;;;;;;44.00;39.50;;;;;4.42;80.04;98162.44;5044902;28;8870;-69
2021/12/11 04:36:03;;;;;;;;;46.00;40.50;;;;;4.37;79.81;98168.47;5044322;28;9732;-70
2021/12/11 04:38:31;;;;;;;;;39.75;37.75;;;;;4.35;80.59;98165.88;5045389;28;8889;-69
2021/12/11 04:41:03;;;;;;;;;41.75;36.50;;;;;4.44;80.03;98183.06;5012286;28;8861;-69
2021/12/11 04:43:33;;;;;;;;;46.00;40.00;;;;;4.53;79.67;98183.09;5045209;28;8984;-69
2021/12/11 04:46:05;;;;;;;;;67.75;53.75;;;;;4.60;78.72;98186.56;5044408;28;8861;-69
2021/12/11 04:48:46;;;;;;;;;38.25;36.50;;;;;4.55;78.93;98189.09;5011460;28;8897;-70
2021/12/11 04:51:22;;;;;;;;;38.25;36.25;;;;;4.61;79.20;98196.00;5044431;28;8842;-68
2021/12/11 04:54:02;;;;;;;;;46.25;41.50;;;;;4.61;78.68;98193.41;5028687;28;8869;-72
2021/12/11 04:56:55;;;;;;;;;39.75;36.50;;;;;4.71;78.80;98204.63;5062550;28;8848;-69
2021/12/11 04:59:40;;;;;;;;;44.00;42.00;;;;;4.80;78.26;98207.22;5107915;28;8882;-70
2021/12/11 05:02:39;;;;;;;;;48.75;39.75;;;;;4.76;78.10;98205.50;5089751;28;8867;-70
2021/12/11 05:05:18;;;;;;;;;44.33;41.67;;;;;4.95;77.64;98204.63;5108475;28;8840;-72
2021/12/11 05:07:59;;;;;;;;;47.25;41.50;;;;;4.88;78.09;98208.09;5112178;28;8894;-69
2021/12/11 05:10:38;;;;;;;;;52.75;45.00;;;;;4.80;77.63;98208.09;5112091;28;8897;-70
2021/12/11 05:13:08;;;;;;;;;5.75;0.25;;;;;4.93;77.52;98221.00;5112074;28;8858;-70
2021/12/11 05:15:40;;;;;;;;;38.75;38.00;;;;;4.95;76.91;98224.44;5075803;28;8843;-69
2021/12/11 05:18:12;;;;;;;;;31.25;24.50;;;;;4.87;77.40;98235.63;5111622;28;8893;-70
2021/12/11 05:20:43;;;;;;;;;52.00;41.50;;;;;4.96;76.75;98237.38;5111541;28;9554;-69
2021/12/11 05:23:12;;;;;;;;;42.00;40.25;;;;;4.90;77.08;98237.38;5112220;28;8940;-69
2021/12/11 05:25:41;;;;;;;;;53.50;43.25;;;;;4.85;77.43;98250.25;5078856;28;8855;-70
2021/12/11 05:28:11;;;;;;;;;45.75;38.75;;;;;4.91;76.64;98258.88;5111696;28;8936;-70
2021/12/11 05:30:44;;;;;;;;;44.25;41.50;;;;;4.79;77.35;98268.34;5111487;28;8848;-69
2021/12/11 05:33:13;;;;;;;;;48.00;38.75;;;;;4.69;77.17;98270.03;5111021;28;8856;-69
2021/12/11 05:35:43;;;;;;;;;46.50;40.75;;;;;4.47;78.28;98261.38;5059329;28;8871;-69
2021/12/11 05:38:14;;;;;;;;;40.25;37.75;;;;;4.53;78.01;98270.84;5075298;28;8883;-70
2021/12/11 05:40:47;;;;;;;;;41.00;35.50;;;;;4.59;77.23;98280.34;5111191;28;8843;-70
2021/12/11 05:43:18;;;;;;;;;41.00;37.50;;;;;4.49;77.63;98289.78;5111172;28;8863;-70
2021/12/11 05:45:47;;;;;;;;;31.75;29.50;;;;;4.49;77.73;98289.78;5111685;28;8867;-69
2021/12/11 05:48:16;;;;;;;;;35.75;29.25;;;;;4.50;77.36;98291.50;5110040;28;8871;-68
2021/12/11 05:50:48;;;;;;;;;26.25;24.00;;;;;4.51;76.93;98289.78;5111328;28;8847;-70
2021/12/11 05:53:18;;;;;;;;;38.80;31.20;;;;;4.40;77.99;98289.75;5111117;28;8839;-70
2021/12/11 05:55:48;;;;;;;;;31.25;29.75;;;;;4.47;77.24;98294.06;5091737;28;8884;-70
2021/12/11 05:58:35;;;;;;;;;31.50;29.00;;;;;4.54;77.25;98288.09;5111080;28;8855;-71
2021/12/11 06:01:06;;;;;;;;;33.25;32.75;;;;;4.55;76.53;98289.78;5111243;28;8875;-69
2021/12/11 06:03:37;;;;;;;;;36.75;31.75;;;;;4.59;76.31;98290.66;5111035;28;8867;-70
2021/12/11 06:06:07;;;;;;;;;30.50;29.25;;;;;4.51;76.91;98305.28;5071109;28;8853;-70
2021/12/11 06:08:36;;;;;;;;;32.75;31.25;;;;;4.53;77.36;98306.13;5109354;28;9464;-70
2021/12/11 06:11:07;;;;;;;;;36.00;32.50;;;;;4.56;77.08;98306.16;5111088;28;8973;-70
2021/12/11 06:13:38;;;;;;;;;31.75;29.50;;;;;4.64;76.79;98312.19;5110575;28;8843;-69
2021/12/11 06:16:08;;;;;;;;;33.50;29.75;;;;;4.59;75.94;98308.72;5110760;28;9716;-70
2021/12/11 06:18:37;;;;;;;;;32.50;29.25;;;;;4.63;76.59;98319.09;5073835;28;8948;-68
2021/12/11 06:21:06;;;;;;;;;32.25;30.50;;;;;4.69;76.82;98321.69;5092345;28;8875;-68
2021/12/11 06:23:34;;;;;;;;;21.25;21.25;;;;;4.58;76.42;98318.22;5110891;28;8859;-69
2021/12/11 06:26:05;;;;;;;;;31.50;31.00;;;;;4.53;77.25;98331.94;5072076;28;8867;-70
2021/12/11 06:28:34;;;;;;;;;31.50;28.75;;;;;4.56;76.95;98334.56;5084648;28;9727;-70
2021/12/11 06:31:05;;;;;;;;;32.00;31.50;;;;;4.56;76.86;98331.97;5097007;28;9818;-69
2021/12/11 06:33:35;;;;;;;;;28.00;26.50;;;;;4.63;76.41;98326.84;5092003;28;8835;-71
2021/12/11 06:36:08;;;;;;;;;32.00;28.50;;;;;4.74;76.43;98331.16;5110332;28;8863;-70
2021/12/11 06:38:39;;;;;;;;;37.75;36.00;;;;;4.80;76.08;98328.59;5110271;28;8956;-69
2021/12/11 06:41:10;;;;;;;;;31.75;28.75;;;;;4.82;75.81;98332.03;5110223;28;8856;-69
2021/12/11 06:43:41;;;;;;;;;35.25;29.50;;;;;4.88;75.58;98329.50;5110448;28;8851;-70
2021/12/11 06:46:12;;;;;;;;;29.75;28.25;;;;;4.91;75.67;98333.78;5091697;28;8843;-70
2021/12/11 06:48:41;;;;;;;;;32.00;32.00;;;;;4.84;75.69;98335.50;5110423;28;8843;-69
2021/12/11 06:51:10;;;;;;;;;31.00;30.00;;;;;4.92;75.82;98333.81;5074640;28;8840;-70
2021/12/11 06:53:41;;;;;;;;;29.25;27.25;;;;;4.87;76.25;98332.91;5091760;28;8859;-69
2021/12/11 06:56:13;;;;;;;;;28.20;26.60;;;;;4.99;75.27;98332.97;5090540;28;8970;-71
2021/12/11 06:58:42;;;;;;;;;31.25;26.25;;;;;4.96;74.98;98330.38;5072883;28;8894;-71
2021/12/11 07:01:12;;;;;;;;;31.75;28.25;;;;;4.99;75.11;98332.97;5109285;28;8852;-69
2021/12/11 07:03:42;;;;;;;;;33.00;27.00;;;;;5.02;75.05;98338.13;5091427;28;8855;-70
2021/12/11 07:06:13;;;;;;;;;29.00;29.00;;;;;4.95;75.48;98346.72;5091467;28;8855;-71
2021/12/11 07:08:41;;;;;;;;;29.40;27.20;;;;;5.03;74.82;98351.91;5109336;28;8864;-69
2021/12/11 07:11:13;;;;;;;;;30.75;29.25;;;;;4.99;74.85;98351.06;5108021;28;8827;-70
2021/12/11 07:13:42;;;;;;;;;25.75;23.75;;;;;5.01;75.08;98364.84;5091451;28;8871;-69
2021/12/11 07:16:13;;;;;;;;;29.00;23.25;;;;;4.96;75.47;98373.44;5091092;28;8832;-69
2021/12/11 07:18:42;;;;;;;;;34.50;33.25;;;;;4.97;74.85;98381.19;5107662;28;8867;-70
2021/12/11 07:21:11;;;;;;;;;33.25;30.00;;;;;5.06;75.25;98395.84;5080189;28;8855;-70
2021/12/11 07:23:45;;;;;;;;;31.00;26.25;;;;;5.11;74.35;98394.13;5109414;28;8840;-69
2021/12/11 07:26:17;;;;;;;;;34.25;32.75;;;;;5.15;75.02;98384.66;5108690;28;8928;-73
2021/12/11 07:28:50;;;;;;;;;38.60;36.20;;;;;5.25;74.18;98376.94;5069405;28;9424;-69
2021/12/11 07:31:22;;;;;;;;;35.75;33.50;;;;;5.36;74.08;98374.34;5085671;28;8877;-70
2021/12/11 07:33:53;;;;;;;;;41.25;37.50;;;;;5.48;73.28;98370.91;5069320;28;8861;-71
2021/12/11 07:36:23;;;;;;;;;35.75;35.00;;;;;5.60;73.27;98365.75;5085570;28;9150;-70
2021/12/11 07:38:52;;;;;;;;;32.50;30.75;;;;;5.68;72.72;98370.94;5085975;28;8870;-71
2021/12/11 07:41:22;;;;;;;;;26.00;25.25;;;;;5.74;72.74;98372.66;5085847;28;8989;-70
2021/12/11 07:43:51;;;;;;;;;44.50;41.75;;;;;5.90;72.70;98370.91;5085840;28;8880;-71
2021/12/11 07:46:25;;;;;;;;;40.75;37.50;;;;;6.01;72.55;98372.69;5085401;28;8815;-70
2021/12/11 07:48:54;;;;;;;;;45.00;39.75;;;;;6.12;71.79;98376.97;5069204;28;8851;-70
2021/12/11 07:51:25;;;;;;;;;49.00;44.00;;;;;6.11;71.67;98383.88;5071979;28;8864;-70
2021/12/11 07:53:57;;;;;;;;;47.75;43.75;;;;;6.17;71.31;98386.44;5085665;28;8871;-69
2021/12/11 07:56:26;;;;;;;;;52.00;43.00;;;;;5.90;72.23;98391.63;5085662;28;8835;-70
2021/12/11 07:58:59;;;;;;;;;56.00;46.00;;;;;5.84;72.73;98397.66;5085217;28;8887;-69
2021/12/11 08:01:30;;;;;;;;;65.50;53.75;;;;;5.74;73.20;98388.19;5052172;28;8974;-71
2021/12/11 08:04:00;;;;;;;;;62.00;48.25;;;;;5.68;73.84;98383.88;5085842;28;8862;-70
2021/12/11 08:06:30;;;;;;;;;66.75;52.50;;;;;5.73;73.45;98376.97;5096664;28;8851;-70
2021/12/11 08:08:58;;;;;;;;;16.25;13.00;;;;;5.52;73.64;98388.19;5090314;28;8859;-74
2021/12/11 08:11:28;;;;;;;;;51.00;44.25;;;;;5.42;74.10;98395.03;5089729;28;8943;-74
2021/12/11 08:13:59;;;;;;;;;51.00;42.75;;;;;5.32;74.69;98395.03;5108608;28;8881;-70
2021/12/11 08:16:35;;;;;;;;;49.75;41.25;;;;;5.46;74.93;98396.78;5108224;28;8848;-72
2021/12/11 08:19:05;;;;;;;;;47.50;40.25;;;;;5.48;74.29;98401.94;5107400;28;8859;-73
2021/12/11 08:21:34;;;;;;;;;43.50;39.75;;;;;5.32;75.58;98419.16;5107590;28;8955;-70
2021/12/11 08:24:05;;;;;;;;;42.75;38.75;;;;;5.42;75.34;98404.53;5108453;28;8869;-71
2021/12/11 08:26:36;;;;;;;;;36.50;31.50;;;;;5.51;75.10;98409.72;5108080;28;8839;-71
2021/12/11 08:29:10;;;;;;;;;39.50;38.00;;;;;5.56;75.31;98413.19;5088411;28;8843;-70
2021/12/11 08:31:43;;;;;;;;;30.50;29.00;;;;;5.56;76.05;98420.09;5094904;28;8911;-71
2021/12/11 08:34:12;;;;;;;;;30.75;28.00;;;;;5.59;75.88;98407.13;5088644;28;8882;-70
2021/12/11 08:36:43;;;;;;;;;34.25;32.00;;;;;5.55;76.93;98421.78;5106933;28;8883;-72
2021/12/11 08:39:14;;;;;;;;;34.75;31.50;;;;;5.42;77.63;98426.06;5088512;28;9614;-72
2021/12/11 08:41:44;;;;;;;;;32.75;29.25;;;;;5.53;77.92;98435.56;5088337;28;9606;-73
2021/12/11 08:44:14;;;;;;;;;34.75;32.25;;;;;5.57;78.11;98426.97;5088709;28;9459;-69
2021/12/11 08:46:50;;;;;;;;;38.25;37.00;;;;;5.54;78.48;98432.13;5070516;28;8959;-71
2021/12/11 08:49:22;;;;;;;;;28.40;23.60;;;;;5.64;78.31;98447.66;5089572;28;8970;-72
2021/12/11 08:51:54;;;;;;;;;33.00;31.50;;;;;5.65;78.53;98446.81;5106564;28;8874;-70
2021/12/11 08:54:24;;;;;;;;;37.50;30.25;;;;;5.71;78.39;98447.66;5107586;28;8897;-71
2021/12/11 08:56:56;;;;;;;;;33.50;30.25;;;;;5.76;78.78;98451.13;5107164;28;9656;-72
2021/12/11 08:59:27;;;;;;;;;26.60;24.60;;;;;5.71;79.44;98452.81;5072017;28;8966;-74
2021/12/11 09:02:05;;;;;;;;;35.50;28.75;;;;;5.59;80.25;98443.34;5088960;28;8874;-71
2021/12/11 09:04:38;;;;;;;;;31.40;26.40;;;;;5.74;80.17;98448.53;5093219;28;8852;-69
2021/12/11 09:07:10;;;;;;;;;29.50;26.50;;;;;5.84;79.90;98442.50;5072012;28;8871;-71
2021/12/11 09:09:43;;;;;;;;;37.25;33.75;;;;;5.72;80.14;98429.56;5026811;28;12714;-71
2021/12/11 09:12:17;;;;;;;;;38.25;34.75;;;;;5.81;80.29;98416.63;5104673;28;8843;-72
2021/12/11 09:14:51;;;;;;;;;42.75;40.25;;;;;5.80;80.55;98411.44;5107029;28;8893;-72
2021/12/11 09:17:26;;;;;;;;;41.25;37.50;;;;;5.84;80.56;98421.81;5087910;28;8940;-71
2021/12/11 09:19:58;;;;;;;;;37.50;34.25;;;;;5.74;81.27;98414.91;5107343;28;8872;-71
2021/12/11 09:22:33;;;;;;;;;42.00;39.50;;;;;5.73;81.08;98405.44;5107227;28;8872;-71
2021/12/11 09:25:08;;;;;;;;;40.75;35.75;;;;;5.82;81.29;98410.59;5067304;28;8873;-72
2021/12/11 09:27:41;;;;;;;;;34.50;31.50;;;;;5.89;81.09;98408.88;5087563;28;8867;-72
2021/12/11 09:30:14;;;;;;;;;32.40;28.80;;;;;6.02;80.89;98399.41;5107109;28;8848;-70
2021/12/11 09:32:48;;;;;;;;;30.25;28.25;;;;;6.00;80.69;98398.56;5106533;28;8844;-70
2021/12/11 09:35:22;;;;;;;;;45.25;33.75;;;;;6.12;81.00;98419.22;5106708;28;8843;-72
2021/12/11 09:37:54;;;;;;;;;33.80;27.60;;;;;6.05;80.88;98417.53;5089538;28;8855;-72
2021/12/11 09:40:46;;;;;;;;;34.40;27.60;;;;;6.09;80.48;98398.56;5085845;28;8919;-71
2021/12/11 09:43:38;;;;;;;;;31.60;27.00;;;;;6.10;80.60;98410.59;5085330;28;9623;-70
2021/12/11 09:46:09;;;;;;;;;33.20;26.80;;;;;6.19;80.37;98413.19;5107127;28;8916;-74
2021/12/11 09:48:40;;;;;;;;;24.60;21.40;;;;;6.25;79.58;98413.19;5106893;28;8859;-70
2021/12/11 09:51:15;;;;;;;;;27.80;25.00;;;;;6.25;79.78;98402.81;5105493;28;8998;-71
2021/12/11 09:53:47;;;;;;;;;19.80;19.20;;;;;6.27;79.69;98404.56;5110495;28;8855;-71
2021/12/11 09:56:24;;;;;;;;;22.80;22.80;;;;;6.34;79.66;98414.03;5110909;28;8852;-72
2021/12/11 09:58:56;;;;;;;;;13.00;13.00;;;;;6.41;78.75;98420.94;5110527;28;8832;-71
2021/12/11 10:01:28;;;;;;;;;31.00;24.40;;;;;6.48;78.71;98439.91;5110333;28;8868;-70
2021/12/11 10:04:03;;;;;;;;;20.80;19.20;;;;;6.48;79.45;98437.31;5074167;28;8886;-70
2021/12/11 10:06:42;;;;;;;;;23.60;20.60;;;;;6.35;79.27;98426.09;5109968;28;8875;-71
2021/12/11 10:09:19;;;;;;;;;40.80;30.80;;;;;6.37;79.61;98417.50;5096048;28;8831;-71
2021/12/11 10:11:58;;;;;;;;;23.80;22.80;;;;;6.30;80.09;98418.38;5110240;28;8831;-70
2021/12/11 10:14:33;;;;;;;;;28.20;25.80;;;;;6.27;79.66;98412.31;5110301;28;9580;-71
2021/12/11 10:17:08;;;;;;;;;31.40;27.00;;;;;6.19;80.96;98428.72;5110512;28;8898;-71
2021/12/11 10:19:38;;;;;;;;;28.80;25.20;;;;;6.25;80.83;98417.50;5110212;28;8844;-71
2021/12/11 10:22:11;;;;;;;;;39.80;33.20;;;;;6.27;80.54;98436.47;5091806;28;8864;-73
2021/12/11 10:24:41;;;;;;;;;34.20;32.80;;;;;6.27;80.45;98436.47;5074118;28;8933;-71
2021/12/11 10:27:20;;;;;;;;;41.00;34.67;;;;;6.18;81.50;98437.38;5105150;28;8843;-72
2021/12/11 10:29:52;;;;;;;;;34.50;33.00;;;;;6.32;81.06;98433.91;5107133;28;8857;-70
2021/12/11 10:32:24;;;;;;;;;31.40;28.80;;;;;6.23;81.00;98432.16;5109620;28;8851;-71
2021/12/11 10:34:58;;;;;;;;;28.40;24.00;;;;;6.16;81.52;98441.69;5108726;28;8835;-72
2021/12/11 10:37:33;;;;;;;;;27.75;26.00;;;;;6.32;81.45;98432.16;5109761;28;9015;-70
2021/12/11 10:40:08;;;;;;;;;33.50;29.50;;;;;6.41;80.56;98434.75;5090194;28;8871;-70
2021/12/11 10:42:37;;;;;;;;;30.50;27.25;;;;;6.43;80.84;98440.78;5109403;28;8844;-71
2021/12/11 10:45:11;;;;;;;;;38.00;30.50;;;;;6.32;81.52;98437.34;5040871;28;8889;-71
2021/12/11 10:47:47;;;;;;;;;32.25;30.50;;;;;6.30;81.62;98433.03;5109436;28;9015;-70
2021/12/11 10:50:22;;;;;;;;;37.25;31.00;;;;;6.25;81.89;98422.69;5108877;28;10004;-70
2021/12/11 10:52:51;;;;;;;;;27.00;26.25;;;;;6.24;81.98;98397.66;5109426;28;8958;-72
2021/12/11 10:55:24;;;;;;;;;28.50;26.00;;;;;6.11;82.88;98417.53;5074231;28;8824;-69
2021/12/11 10:57:53;;;;;;;;;34.00;31.50;;;;;6.13;82.62;98420.13;5101980;28;8908;-69
2021/12/11 11:00:28;;;;;;;;;30.80;28.40;;;;;6.14;83.19;98422.69;5090987;28;8963;-72
2021/12/11 11:02:58;;;;;;;;;34.50;30.25;;;;;6.13;82.90;98418.38;5073918;28;8828;-71
2021/12/11 11:05:30;;;;;;;;;34.75;34.00;;;;;6.24;82.90;98420.97;5084407;28;8847;-72
2021/12/11 11:07:58;;;;;;;;;36.75;33.50;;;;;6.30;82.77;98427.88;5091492;28;8867;-74
2021/12/11 11:10:32;;;;;;;;;36.75;29.25;;;;;6.33;82.63;98423.53;5091178;28;8865;-73
2021/12/11 11:13:08;;;;;;;;;29.00;27.00;;;;;6.29;82.63;98426.13;5108732;28;9691;-70
2021/12/11 11:15:40;;;;;;;;;29.60;28.00;;;;;6.44;81.89;98410.56;5107970;28;8874;-72
2021/12/11 11:18:12;;;;;;;;;30.00;26.80;;;;;6.47;81.79;98414.88;5106753;28;8956;-72
2021/12/11 11:20:44;;;;;;;;;27.40;24.60;;;;;6.56;81.15;98418.31;5108926;28;8824;-71
2021/12/11 11:23:13;;;;;;;;;24.20;20.40;;;;;6.30;81.56;98402.81;5072861;28;8913;-71
2021/12/11 11:25:46;;;;;;;;;22.40;21.60;;;;;6.21;82.07;98408.03;5040206;28;8863;-71
2021/12/11 11:28:19;;;;;;;;;25.00;21.20;;;;;6.38;81.68;98416.59;5108557;28;8878;-71
2021/12/11 11:30:53;;;;;;;;;19.80;18.20;;;;;6.31;81.38;98424.41;5108996;28;8850;-72
2021/12/11 11:33:28;;;;;;;;;30.20;28.40;;;;;6.32;82.30;98418.38;5071728;28;9591;-79
2021/12/11 11:35:59;;;;;;;;;26.20;21.20;;;;;6.29;82.12;98426.97;5063930;28;8862;-76
2021/12/11 11:38:31;;;;;;;;;21.60;21.60;;;;;6.33;82.59;98444.25;5083112;28;8862;-76
2021/12/11 11:41:04;;;;;;;;;21.20;21.00;;;;;6.25;82.50;98449.41;5065988;28;9603;-77
2021/12/11 11:43:33;;;;;;;;;19.80;17.40;;;;;6.36;82.20;98448.56;5049543;28;8873;-78
2021/12/11 11:46:04;;;;;;;;;31.60;25.40;;;;;6.32;82.53;98459.78;5066847;28;8858;-79
2021/12/11 11:48:38;;;;;;;;;22.60;20.60;;;;;6.40;81.84;98458.03;5067024;28;8973;-78
2021/12/11 11:51:16;;;;;;;;;20.20;19.20;;;;;6.49;81.70;98455.44;5050556;28;8872;-79
2021/12/11 11:53:45;;;;;;;;;20.60;18.40;;;;;6.36;82.57;98464.94;5067311;28;8975;-82
2021/12/11 11:56:18;;;;;;;;;19.80;18.00;;;;;6.42;82.27;98464.06;5050648;28;8981;-79
2021/12/11 11:58:47;;;;;;;;;18.00;15.80;;;;;6.58;81.40;98460.59;5072179;28;8890;-80